sensor_id;sensor_type;location;lat;lon;timestamp;P1;durP1;ratioP1;P2;durP2;ratioP2
39524;SDS011;25203;50.754;6.978;2022-11-21T00:00:02;18.20;;;4.88;;
39524;SDS011;25203;50.754;6.978;2022-11-21T00:02:04;16.20;;;3.67;;
39524;SDS011;25203;50.754;6.978;2022-11-21T00:04:04;15.85;;;4.25;;
39524;SDS011;25203;50.754;6.978;2022-11-21T00:06:06;22.73;;;5.30;;
39524;SDS011;25203;50.754;6.978;2022-11-21T00:08:07;22.25;;;4.20;;
39524;SDS011;25203;50.754;6.978;2022-11-21T00:10:11;14.70;;;3.65;;
39524;SDS011;25203;50.754;6.978;2022-11-21T00:12:12;15.45;;;3.85;;
39524;SDS011;25203;50.754;6.978;2022-11-21T00:14:15;18.08;;;3.95;;
39524;SDS011;25203;50.754;6.978;2022-11-21T00:16:16;14.73;;;3.83;;
39524;SDS011;25203;50.754;6.978;2022-11-21T00:18:16;18.67;;;3.92;;
39524;SDS011;25203;50.754;6.978;2022-11-21T00:20:18;15.23;;;3.47;;
39524;SDS011;25203;50.754;6.978;2022-11-21T00:22:20;12.50;;;3.95;;
39524;SDS011;25203;50.754;6.978;2022-11-21T00:24:20;25.52;;;3.75;;
39524;SDS011;25203;50.754;6.978;2022-11-21T00:26:21;21.33;;;4.25;;
39524;SDS011;25203;50.754;6.978;2022-11-21T00:28:21;15.82;;;3.85;;
39524;SDS011;25203;50.754;6.978;2022-11-21T00:30:22;16.35;;;3.33;;
39524;SDS011;25203;50.754;6.978;2022-11-21T00:32:23;18.30;;;3.55;;
39524;SDS011;25203;50.754;6.978;2022-11-21T00:34:23;17.02;;;4.00;;
39524;SDS011;25203;50.754;6.978;2022-11-21T00:36:24;13.57;;;3.72;;
39524;SDS011;25203;50.754;6.978;2022-11-21T00:38:25;14.75;;;3.47;;
39524;SDS011;25203;50.754;6.978;2022-11-21T00:40:26;20.60;;;4.10;;
39524;SDS011;25203;50.754;6.978;2022-11-21T00:42:26;15.25;;;3.10;;
39524;SDS011;25203;50.754;6.978;2022-11-21T00:44:27;19.20;;;3.78;;
39524;SDS011;25203;50.754;6.978;2022-11-21T00:46:28;14.43;;;3.13;;
39524;SDS011;25203;50.754;6.978;2022-11-21T00:48:29;22.85;;;4.68;;
39524;SDS011;25203;50.754;6.978;2022-11-21T00:50:30;19.48;;;5.15;;
39524;SDS011;25203;50.754;6.978;2022-11-21T00:52:31;19.83;;;4.03;;
39524;SDS011;25203;50.754;6.978;2022-11-21T00:54:31;15.40;;;4.50;;
39524;SDS011;25203;50.754;6.978;2022-11-21T00:56:32;19.55;;;4.00;;
39524;SDS011;25203;50.754;6.978;2022-11-21T00:58:32;12.80;;;2.97;;
39524;SDS011;25203;50.754;6.978;2022-11-21T01:00:33;16.48;;;4.13;;
39524;SDS011;25203;50.754;6.978;2022-11-21T01:02:34;31.63;;;5.28;;
39524;SDS011;25203;50.754;6.978;2022-11-21T01:04:34;11.27;;;3.03;;
39524;SDS011;25203;50.754;6.978;2022-11-21T01:06:38;14.60;;;3.85;;
39524;SDS011;25203;50.754;6.978;2022-11-21T01:08:40;10.40;;;3.00;;
39524;SDS011;25203;50.754;6.978;2022-11-21T01:10:42;15.43;;;3.60;;
39524;SDS011;25203;50.754;6.978;2022-11-21T01:12:43;17.00;;;3.35;;
39524;SDS011;25203;50.754;6.978;2022-11-21T01:14:44;20.02;;;4.20;;
39524;SDS011;25203;50.754;6.978;2022-11-21T01:16:44;20.23;;;5.13;;
39524;SDS011;25203;50.754;6.978;2022-11-21T01:18:46;12.10;;;3.55;;
39524;SDS011;25203;50.754;6.978;2022-11-21T01:20:47;15.80;;;4.45;;
39524;SDS011;25203;50.754;6.978;2022-11-21T01:22:47;24.58;;;4.95;;
39524;SDS011;25203;50.754;6.978;2022-11-21T01:24:48;18.25;;;4.00;;
39524;SDS011;25203;50.754;6.978;2022-11-21T01:26:48;20.25;;;3.83;;
39524;SDS011;25203;50.754;6.978;2022-11-21T01:28:50;20.80;;;4.18;;
39524;SDS011;25203;50.754;6.978;2022-11-21T01:30:51;19.63;;;4.65;;
39524;SDS011;25203;50.754;6.978;2022-11-21T01:32:51;24.98;;;4.45;;
39524;SDS011;25203;50.754;6.978;2022-11-21T01:34:52;13.40;;;4.97;;
39524;SDS011;25203;50.754;6.978;2022-11-21T01:36:52;13.75;;;4.15;;
39524;SDS011;25203;50.754;6.978;2022-11-21T01:38:54;13.13;;;3.90;;
39524;SDS011;25203;50.754;6.978;2022-11-21T01:40:56;17.75;;;4.57;;
39524;SDS011;25203;50.754;6.978;2022-11-21T01:42:58;11.73;;;3.50;;
39524;SDS011;25203;50.754;6.978;2022-11-21T01:45:45;13.50;;;4.80;;
39524;SDS011;25203;50.754;6.978;2022-11-21T01:47:41;13.32;;;3.47;;
39524;SDS011;25203;50.754;6.978;2022-11-21T01:49:41;16.90;;;4.72;;
39524;SDS011;25203;50.754;6.978;2022-11-21T01:56:23;16.65;;;4.25;;
39524;SDS011;25203;50.754;6.978;2022-11-21T01:58:24;14.15;;;3.92;;
39524;SDS011;25203;50.754;6.978;2022-11-21T02:00:26;15.77;;;4.22;;
39524;SDS011;25203;50.754;6.978;2022-11-21T02:02:31;21.92;;;4.28;;
39524;SDS011;25203;50.754;6.978;2022-11-21T02:04:34;16.70;;;4.57;;
39524;SDS011;25203;50.754;6.978;2022-11-21T02:06:36;10.57;;;3.42;;
39524;SDS011;25203;50.754;6.978;2022-11-21T02:08:38;13.50;;;3.88;;
39524;SDS011;25203;50.754;6.978;2022-11-21T02:10:41;9.20;;;3.45;;
39524;SDS011;25203;50.754;6.978;2022-11-21T02:12:57;13.38;;;3.58;;
39524;SDS011;25203;50.754;6.978;2022-11-21T02:14:59;14.98;;;3.47;;
39524;SDS011;25203;50.754;6.978;2022-11-21T02:17:02;8.73;;;2.90;;
39524;SDS011;25203;50.754;6.978;2022-11-21T02:19:07;11.95;;;3.08;;
39524;SDS011;25203;50.754;6.978;2022-11-21T02:21:27;12.75;;;2.90;;
39524;SDS011;25203;50.754;6.978;2022-11-21T02:24:01;15.52;;;3.20;;
39524;SDS011;25203;50.754;6.978;2022-11-21T02:26:11;14.70;;;3.20;;
39524;SDS011;25203;50.754;6.978;2022-11-21T02:28:15;11.55;;;3.28;;
39524;SDS011;25203;50.754;6.978;2022-11-21T02:30:19;15.98;;;3.05;;
39524;SDS011;25203;50.754;6.978;2022-11-21T02:32:23;8.80;;;3.13;;
39524;SDS011;25203;50.754;6.978;2022-11-21T02:34:31;14.43;;;3.03;;
39524;SDS011;25203;50.754;6.978;2022-11-21T02:36:40;13.20;;;3.35;;
39524;SDS011;25203;50.754;6.978;2022-11-21T02:38:43;12.63;;;3.10;;
39524;SDS011;25203;50.754;6.978;2022-11-21T02:40:47;11.00;;;3.00;;
39524;SDS011;25203;50.754;6.978;2022-11-21T02:43:16;15.10;;;4.00;;
39524;SDS011;25203;50.754;6.978;2022-11-21T02:45:32;12.97;;;3.30;;
39524;SDS011;25203;50.754;6.978;2022-11-21T02:47:36;11.98;;;2.97;;
39524;SDS011;25203;50.754;6.978;2022-11-21T02:49:40;13.02;;;3.38;;
39524;SDS011;25203;50.754;6.978;2022-11-21T02:51:46;11.80;;;3.58;;
39524;SDS011;25203;50.754;6.978;2022-11-21T02:53:47;11.25;;;2.72;;
39524;SDS011;25203;50.754;6.978;2022-11-21T02:55:48;15.85;;;3.10;;
39524;SDS011;25203;50.754;6.978;2022-11-21T02:57:48;10.32;;;3.22;;
39524;SDS011;25203;50.754;6.978;2022-11-21T02:59:49;11.20;;;2.33;;
39524;SDS011;25203;50.754;6.978;2022-11-21T03:01:50;15.13;;;2.63;;
39524;SDS011;25203;50.754;6.978;2022-11-21T03:03:50;11.23;;;3.08;;
39524;SDS011;25203;50.754;6.978;2022-11-21T03:05:51;10.25;;;2.78;;
39524;SDS011;25203;50.754;6.978;2022-11-21T03:07:51;13.43;;;3.50;;
39524;SDS011;25203;50.754;6.978;2022-11-21T03:09:52;10.27;;;3.28;;
39524;SDS011;25203;50.754;6.978;2022-11-21T03:11:52;13.70;;;3.00;;
39524;SDS011;25203;50.754;6.978;2022-11-21T03:13:53;17.65;;;3.38;;
39524;SDS011;25203;50.754;6.978;2022-11-21T03:15:54;12.50;;;3.05;;
39524;SDS011;25203;50.754;6.978;2022-11-21T03:17:54;9.23;;;2.85;;
39524;SDS011;25203;50.754;6.978;2022-11-21T03:19:55;14.73;;;3.05;;
39524;SDS011;25203;50.754;6.978;2022-11-21T03:21:56;13.90;;;2.75;;
39524;SDS011;25203;50.754;6.978;2022-11-21T03:23:57;9.88;;;2.42;;
39524;SDS011;25203;50.754;6.978;2022-11-21T03:25:58;14.27;;;2.80;;
39524;SDS011;25203;50.754;6.978;2022-11-21T03:27:59;8.25;;;2.40;;
39524;SDS011;25203;50.754;6.978;2022-11-21T03:29:59;6.78;;;3.40;;
39524;SDS011;25203;50.754;6.978;2022-11-21T03:32:00;12.25;;;3.10;;
39524;SDS011;25203;50.754;6.978;2022-11-21T03:34:00;9.23;;;2.90;;
39524;SDS011;25203;50.754;6.978;2022-11-21T03:36:01;12.90;;;3.22;;
39524;SDS011;25203;50.754;6.978;2022-11-21T03:38:02;9.60;;;2.50;;
39524;SDS011;25203;50.754;6.978;2022-11-21T03:40:03;15.00;;;2.85;;
39524;SDS011;25203;50.754;6.978;2022-11-21T03:42:03;10.13;;;2.75;;
39524;SDS011;25203;50.754;6.978;2022-11-21T03:44:05;8.38;;;3.42;;
39524;SDS011;25203;50.754;6.978;2022-11-21T03:46:07;13.18;;;3.38;;
39524;SDS011;25203;50.754;6.978;2022-11-21T03:48:08;9.32;;;2.65;;
39524;SDS011;25203;50.754;6.978;2022-11-21T03:50:08;11.20;;;3.63;;
39524;SDS011;25203;50.754;6.978;2022-11-21T03:52:09;8.30;;;2.65;;
39524;SDS011;25203;50.754;6.978;2022-11-21T03:54:10;11.65;;;3.30;;
39524;SDS011;25203;50.754;6.978;2022-11-21T03:56:11;7.70;;;2.92;;
39524;SDS011;25203;50.754;6.978;2022-11-21T03:58:12;10.85;;;2.95;;
39524;SDS011;25203;50.754;6.978;2022-11-21T04:00:13;15.98;;;2.67;;
39524;SDS011;25203;50.754;6.978;2022-11-21T04:02:14;11.43;;;3.00;;
39524;SDS011;25203;50.754;6.978;2022-11-21T04:04:14;10.07;;;2.85;;
39524;SDS011;25203;50.754;6.978;2022-11-21T04:06:16;9.90;;;2.95;;
39524;SDS011;25203;50.754;6.978;2022-11-21T04:08:18;10.32;;;2.75;;
39524;SDS011;25203;50.754;6.978;2022-11-21T04:10:18;10.85;;;3.30;;
39524;SDS011;25203;50.754;6.978;2022-11-21T04:12:19;13.10;;;2.95;;
39524;SDS011;25203;50.754;6.978;2022-11-21T04:14:20;10.85;;;3.70;;
39524;SDS011;25203;50.754;6.978;2022-11-21T04:16:21;12.60;;;3.25;;
39524;SDS011;25203;50.754;6.978;2022-11-21T04:18:21;12.00;;;3.15;;
39524;SDS011;25203;50.754;6.978;2022-11-21T04:20:22;9.13;;;3.15;;
39524;SDS011;25203;50.754;6.978;2022-11-21T04:22:22;7.72;;;3.10;;
39524;SDS011;25203;50.754;6.978;2022-11-21T04:24:23;12.07;;;3.13;;
39524;SDS011;25203;50.754;6.978;2022-11-21T04:26:24;17.58;;;3.95;;
39524;SDS011;25203;50.754;6.978;2022-11-21T04:28:24;7.07;;;3.08;;
39524;SDS011;25203;50.754;6.978;2022-11-21T04:30:25;9.40;;;3.60;;
39524;SDS011;25203;50.754;6.978;2022-11-21T04:32:26;15.15;;;3.55;;
39524;SDS011;25203;50.754;6.978;2022-11-21T04:34:27;11.43;;;3.78;;
39524;SDS011;25203;50.754;6.978;2022-11-21T04:36:28;11.50;;;4.03;;
39524;SDS011;25203;50.754;6.978;2022-11-21T04:38:28;9.77;;;3.92;;
39524;SDS011;25203;50.754;6.978;2022-11-21T04:40:29;12.73;;;4.53;;
39524;SDS011;25203;50.754;6.978;2022-11-21T04:42:29;13.05;;;3.88;;
39524;SDS011;25203;50.754;6.978;2022-11-21T04:44:30;8.52;;;4.35;;
39524;SDS011;25203;50.754;6.978;2022-11-21T04:46:31;10.32;;;3.75;;
39524;SDS011;25203;50.754;6.978;2022-11-21T04:48:31;13.65;;;4.30;;
39524;SDS011;25203;50.754;6.978;2022-11-21T04:50:32;18.77;;;5.05;;
39524;SDS011;25203;50.754;6.978;2022-11-21T04:52:32;11.52;;;4.35;;
39524;SDS011;25203;50.754;6.978;2022-11-21T04:54:34;10.57;;;4.93;;
39524;SDS011;25203;50.754;6.978;2022-11-21T04:56:35;15.13;;;4.82;;
39524;SDS011;25203;50.754;6.978;2022-11-21T04:58:36;12.98;;;5.05;;
39524;SDS011;25203;50.754;6.978;2022-11-21T05:00:36;13.90;;;5.25;;
39524;SDS011;25203;50.754;6.978;2022-11-21T05:02:37;12.75;;;4.90;;
39524;SDS011;25203;50.754;6.978;2022-11-21T05:04:38;11.18;;;5.13;;
39524;SDS011;25203;50.754;6.978;2022-11-21T05:06:38;16.80;;;6.40;;
39524;SDS011;25203;50.754;6.978;2022-11-21T05:08:39;9.95;;;5.13;;
39524;SDS011;25203;50.754;6.978;2022-11-21T05:10:40;11.95;;;5.63;;
39524;SDS011;25203;50.754;6.978;2022-11-21T05:13:00;15.32;;;6.00;;
39524;SDS011;25203;50.754;6.978;2022-11-21T05:15:19;11.15;;;5.90;;
39524;SDS011;25203;50.754;6.978;2022-11-21T05:17:20;17.10;;;5.32;;
39524;SDS011;25203;50.754;6.978;2022-11-21T05:19:20;11.25;;;5.45;;
39524;SDS011;25203;50.754;6.978;2022-11-21T05:21:21;12.40;;;5.60;;
39524;SDS011;25203;50.754;6.978;2022-11-21T05:23:22;15.20;;;5.95;;
39524;SDS011;25203;50.754;6.978;2022-11-21T05:25:22;12.85;;;5.65;;
39524;SDS011;25203;50.754;6.978;2022-11-21T05:27:23;9.75;;;4.78;;
39524;SDS011;25203;50.754;6.978;2022-11-21T05:29:23;8.85;;;4.78;;
39524;SDS011;25203;50.754;6.978;2022-11-21T05:31:24;12.98;;;5.47;;
39524;SDS011;25203;50.754;6.978;2022-11-21T05:33:24;9.93;;;6.05;;
39524;SDS011;25203;50.754;6.978;2022-11-21T05:35:25;12.20;;;5.47;;
39524;SDS011;25203;50.754;6.978;2022-11-21T05:37:25;11.80;;;6.43;;
39524;SDS011;25203;50.754;6.978;2022-11-21T05:39:26;9.98;;;5.72;;
39524;SDS011;25203;50.754;6.978;2022-11-21T05:41:27;11.88;;;5.97;;
39524;SDS011;25203;50.754;6.978;2022-11-21T05:43:28;10.35;;;6.05;;
39524;SDS011;25203;50.754;6.978;2022-11-21T05:45:50;17.42;;;5.80;;
39524;SDS011;25203;50.754;6.978;2022-11-21T05:47:51;13.00;;;6.05;;
39524;SDS011;25203;50.754;6.978;2022-11-21T05:49:51;15.70;;;6.63;;
39524;SDS011;25203;50.754;6.978;2022-11-21T05:51:52;17.33;;;7.03;;
39524;SDS011;25203;50.754;6.978;2022-11-21T05:53:52;10.70;;;6.15;;
39524;SDS011;25203;50.754;6.978;2022-11-21T05:55:53;11.38;;;6.00;;
39524;SDS011;25203;50.754;6.978;2022-11-21T05:57:56;16.58;;;6.38;;
39524;SDS011;25203;50.754;6.978;2022-11-21T05:59:57;9.52;;;6.40;;
39524;SDS011;25203;50.754;6.978;2022-11-21T06:01:58;9.15;;;5.88;;
39524;SDS011;25203;50.754;6.978;2022-11-21T06:04:17;15.13;;;5.70;;
39524;SDS011;25203;50.754;6.978;2022-11-21T06:06:18;10.13;;;6.65;;
39524;SDS011;25203;50.754;6.978;2022-11-21T06:08:18;15.45;;;6.53;;
39524;SDS011;25203;50.754;6.978;2022-11-21T06:10:19;14.60;;;6.72;;
39524;SDS011;25203;50.754;6.978;2022-11-21T06:12:20;17.17;;;7.13;;
39524;SDS011;25203;50.754;6.978;2022-11-21T06:14:20;13.55;;;6.15;;
39524;SDS011;25203;50.754;6.978;2022-11-21T06:16:21;7.18;;;5.65;;
39524;SDS011;25203;50.754;6.978;2022-11-21T06:18:22;12.52;;;6.13;;
39524;SDS011;25203;50.754;6.978;2022-11-21T06:20:22;11.23;;;6.43;;
39524;SDS011;25203;50.754;6.978;2022-11-21T06:22:23;11.75;;;6.05;;
39524;SDS011;25203;50.754;6.978;2022-11-21T06:24:23;17.52;;;6.03;;
39524;SDS011;25203;50.754;6.978;2022-11-21T06:26:24;13.30;;;6.97;;
39524;SDS011;25203;50.754;6.978;2022-11-21T06:28:26;12.65;;;6.78;;
39524;SDS011;25203;50.754;6.978;2022-11-21T06:30:29;10.75;;;6.43;;
39524;SDS011;25203;50.754;6.978;2022-11-21T06:32:34;9.05;;;7.03;;
39524;SDS011;25203;50.754;6.978;2022-11-21T06:34:36;12.45;;;6.80;;
39524;SDS011;25203;50.754;6.978;2022-11-21T06:36:37;10.80;;;7.22;;
39524;SDS011;25203;50.754;6.978;2022-11-21T06:38:37;12.85;;;7.22;;
39524;SDS011;25203;50.754;6.978;2022-11-21T06:40:41;15.27;;;7.45;;
39524;SDS011;25203;50.754;6.978;2022-11-21T06:42:42;13.13;;;7.30;;
39524;SDS011;25203;50.754;6.978;2022-11-21T06:44:42;13.50;;;7.72;;
39524;SDS011;25203;50.754;6.978;2022-11-21T06:46:43;12.82;;;6.80;;
39524;SDS011;25203;50.754;6.978;2022-11-21T06:48:44;11.02;;;6.07;;
39524;SDS011;25203;50.754;6.978;2022-11-21T06:50:44;14.68;;;6.85;;
39524;SDS011;25203;50.754;6.978;2022-11-21T06:52:45;14.00;;;6.22;;
39524;SDS011;25203;50.754;6.978;2022-11-21T06:54:45;11.75;;;6.40;;
39524;SDS011;25203;50.754;6.978;2022-11-21T06:56:46;11.15;;;5.75;;
39524;SDS011;25203;50.754;6.978;2022-11-21T06:58:46;18.80;;;6.60;;
39524;SDS011;25203;50.754;6.978;2022-11-21T07:00:47;10.10;;;5.63;;
39524;SDS011;25203;50.754;6.978;2022-11-21T07:02:48;12.07;;;5.63;;
39524;SDS011;25203;50.754;6.978;2022-11-21T07:04:48;9.93;;;5.38;;
39524;SDS011;25203;50.754;6.978;2022-11-21T07:06:49;11.82;;;5.43;;
39524;SDS011;25203;50.754;6.978;2022-11-21T07:08:52;16.20;;;6.22;;
39524;SDS011;25203;50.754;6.978;2022-11-21T07:10:53;10.45;;;5.28;;
39524;SDS011;25203;50.754;6.978;2022-11-21T07:13:00;7.07;;;4.82;;
39524;SDS011;25203;50.754;6.978;2022-11-21T07:15:19;9.73;;;4.63;;
39524;SDS011;25203;50.754;6.978;2022-11-21T07:17:20;11.75;;;5.03;;
39524;SDS011;25203;50.754;6.978;2022-11-21T07:19:20;10.43;;;4.45;;
39524;SDS011;25203;50.754;6.978;2022-11-21T07:21:22;10.85;;;5.25;;
39524;SDS011;25203;50.754;6.978;2022-11-21T07:23:22;9.88;;;4.65;;
39524;SDS011;25203;50.754;6.978;2022-11-21T07:25:23;10.40;;;4.30;;
39524;SDS011;25203;50.754;6.978;2022-11-21T07:27:24;7.53;;;4.63;;
39524;SDS011;25203;50.754;6.978;2022-11-21T07:29:24;9.68;;;3.78;;
39524;SDS011;25203;50.754;6.978;2022-11-21T07:31:25;8.00;;;4.43;;
39524;SDS011;25203;50.754;6.978;2022-11-21T07:33:26;10.45;;;4.50;;
39524;SDS011;25203;50.754;6.978;2022-11-21T07:35:27;13.00;;;5.10;;
39524;SDS011;25203;50.754;6.978;2022-11-21T07:37:28;10.15;;;5.18;;
39524;SDS011;25203;50.754;6.978;2022-11-21T07:39:28;8.73;;;4.75;;
39524;SDS011;25203;50.754;6.978;2022-11-21T07:41:29;9.82;;;4.65;;
39524;SDS011;25203;50.754;6.978;2022-11-21T07:43:29;11.23;;;5.65;;
39524;SDS011;25203;50.754;6.978;2022-11-21T07:45:30;8.48;;;5.20;;
39524;SDS011;25203;50.754;6.978;2022-11-21T07:47:32;7.47;;;4.95;;
39524;SDS011;25203;50.754;6.978;2022-11-21T07:49:32;8.45;;;5.13;;
39524;SDS011;25203;50.754;6.978;2022-11-21T07:51:33;9.65;;;5.53;;
39524;SDS011;25203;50.754;6.978;2022-11-21T07:53:33;8.93;;;5.25;;
39524;SDS011;25203;50.754;6.978;2022-11-21T07:55:34;9.63;;;5.38;;
39524;SDS011;25203;50.754;6.978;2022-11-21T07:57:35;9.95;;;5.63;;
39524;SDS011;25203;50.754;6.978;2022-11-21T07:59:36;11.35;;;5.65;;
39524;SDS011;25203;50.754;6.978;2022-11-21T08:01:37;10.10;;;5.35;;
39524;SDS011;25203;50.754;6.978;2022-11-21T08:03:37;9.80;;;5.72;;
39524;SDS011;25203;50.754;6.978;2022-11-21T08:05:41;7.68;;;4.82;;
39524;SDS011;25203;50.754;6.978;2022-11-21T08:07:49;6.82;;;4.43;;
39524;SDS011;25203;50.754;6.978;2022-11-21T08:09:50;7.38;;;4.38;;
39524;SDS011;25203;50.754;6.978;2022-11-21T08:11:51;5.75;;;3.28;;
39524;SDS011;25203;50.754;6.978;2022-11-21T08:13:51;7.38;;;3.72;;
39524;SDS011;25203;50.754;6.978;2022-11-21T08:15:52;6.68;;;3.50;;
39524;SDS011;25203;50.754;6.978;2022-11-21T08:17:52;6.75;;;3.85;;
39524;SDS011;25203;50.754;6.978;2022-11-21T08:19:53;5.13;;;3.72;;
39524;SDS011;25203;50.754;6.978;2022-11-21T08:21:54;4.45;;;3.42;;
39524;SDS011;25203;50.754;6.978;2022-11-21T08:23:54;4.78;;;3.30;;
39524;SDS011;25203;50.754;6.978;2022-11-21T08:25:55;7.22;;;3.70;;
39524;SDS011;25203;50.754;6.978;2022-11-21T08:27:55;6.32;;;3.60;;
39524;SDS011;25203;50.754;6.978;2022-11-21T08:29:57;8.27;;;2.85;;
39524;SDS011;25203;50.754;6.978;2022-11-21T08:31:57;5.50;;;2.95;;
39524;SDS011;25203;50.754;6.978;2022-11-21T08:33:58;6.50;;;3.42;;
39524;SDS011;25203;50.754;6.978;2022-11-21T08:36:02;5.63;;;3.45;;
39524;SDS011;25203;50.754;6.978;2022-11-21T08:38:03;9.43;;;4.43;;
39524;SDS011;25203;50.754;6.978;2022-11-21T08:40:04;7.28;;;4.00;;
39524;SDS011;25203;50.754;6.978;2022-11-21T08:42:06;6.40;;;4.13;;
39524;SDS011;25203;50.754;6.978;2022-11-21T08:44:06;5.07;;;3.75;;
39524;SDS011;25203;50.754;6.978;2022-11-21T08:46:07;5.70;;;3.75;;
39524;SDS011;25203;50.754;6.978;2022-11-21T08:48:11;6.70;;;3.50;;
39524;SDS011;25203;50.754;6.978;2022-11-21T08:50:11;9.73;;;3.35;;
39524;SDS011;25203;50.754;6.978;2022-11-21T08:52:12;4.47;;;2.75;;
39524;SDS011;25203;50.754;6.978;2022-11-21T08:54:14;8.45;;;3.47;;
39524;SDS011;25203;50.754;6.978;2022-11-21T08:56:16;6.75;;;3.85;;
39524;SDS011;25203;50.754;6.978;2022-11-21T08:58:16;9.32;;;2.53;;
39524;SDS011;25203;50.754;6.978;2022-11-21T09:00:17;6.22;;;2.45;;
39524;SDS011;25203;50.754;6.978;2022-11-21T09:02:18;4.05;;;2.42;;
39524;SDS011;25203;50.754;6.978;2022-11-21T09:04:18;5.43;;;2.17;;
39524;SDS011;25203;50.754;6.978;2022-11-21T09:06:19;6.93;;;2.22;;
39524;SDS011;25203;50.754;6.978;2022-11-21T09:08:19;3.70;;;1.70;;
39524;SDS011;25203;50.754;6.978;2022-11-21T09:10:20;4.05;;;1.98;;
39524;SDS011;25203;50.754;6.978;2022-11-21T09:12:21;3.97;;;1.98;;
39524;SDS011;25203;50.754;6.978;2022-11-21T09:14:21;3.53;;;1.30;;
39524;SDS011;25203;50.754;6.978;2022-11-21T09:16:40;1.85;;;1.23;;
39524;SDS011;25203;50.754;6.978;2022-11-21T09:18:59;3.22;;;1.10;;
39524;SDS011;25203;50.754;6.978;2022-11-21T09:21:00;1.80;;;1.17;;
39524;SDS011;25203;50.754;6.978;2022-11-21T09:23:04;1.65;;;1.10;;
39524;SDS011;25203;50.754;6.978;2022-11-21T09:25:08;2.22;;;1.20;;
39524;SDS011;25203;50.754;6.978;2022-11-21T09:27:09;1.95;;;0.98;;
39524;SDS011;25203;50.754;6.978;2022-11-21T09:29:10;4.65;;;1.10;;
39524;SDS011;25203;50.754;6.978;2022-11-21T09:31:11;3.10;;;1.20;;
39524;SDS011;25203;50.754;6.978;2022-11-21T09:33:12;1.77;;;0.98;;
39524;SDS011;25203;50.754;6.978;2022-11-21T09:35:15;3.88;;;1.13;;
39524;SDS011;25203;50.754;6.978;2022-11-21T09:37:16;4.15;;;1.15;;
39524;SDS011;25203;50.754;6.978;2022-11-21T09:39:16;3.25;;;1.13;;
39524;SDS011;25203;50.754;6.978;2022-11-21T09:44:52;1.40;;;1.10;;
39524;SDS011;25203;50.754;6.978;2022-11-21T09:46:27;6.13;;;1.42;;
39524;SDS011;25203;50.754;6.978;2022-11-21T09:48:38;1.88;;;0.90;;
39524;SDS011;25203;50.754;6.978;2022-11-21T09:50:53;2.20;;;1.00;;
39524;SDS011;25203;50.754;6.978;2022-11-21T09:55:09;1.60;;;1.10;;
39524;SDS011;25203;50.754;6.978;2022-11-21T09:57:20;1.90;;;0.90;;
39524;SDS011;25203;50.754;6.978;2022-11-21T09:59:35;1.23;;;0.90;;
39524;SDS011;25203;50.754;6.978;2022-11-21T10:01:37;1.92;;;0.90;;
39524;SDS011;25203;50.754;6.978;2022-11-21T10:03:42;2.08;;;0.82;;
39524;SDS011;25203;50.754;6.978;2022-11-21T10:07:52;3.90;;;0.85;;
39524;SDS011;25203;50.754;6.978;2022-11-21T10:13:12;1.80;;;0.80;;
39524;SDS011;25203;50.754;6.978;2022-11-21T10:17:25;3.35;;;1.10;;
39524;SDS011;25203;50.754;6.978;2022-11-21T10:26:15;1.95;;;1.00;;
39524;SDS011;25203;50.754;6.978;2022-11-21T10:29:11;1.55;;;1.10;;
39524;SDS011;25203;50.754;6.978;2022-11-21T10:30:46;2.47;;;1.40;;
39524;SDS011;25203;50.754;6.978;2022-11-21T10:32:54;4.05;;;1.63;;
39524;SDS011;25203;50.754;6.978;2022-11-21T10:34:57;3.20;;;1.95;;
39524;SDS011;25203;50.754;6.978;2022-11-21T10:37:03;5.45;;;1.90;;
39524;SDS011;25203;50.754;6.978;2022-11-21T10:39:33;4.55;;;1.27;;
39524;SDS011;25203;50.754;6.978;2022-11-21T10:41:39;3.90;;;0.85;;
39524;SDS011;25203;50.754;6.978;2022-11-21T10:43:58;2.25;;;0.80;;
39524;SDS011;25203;50.754;6.978;2022-11-21T10:46:25;2.70;;;1.10;;
39524;SDS011;25203;50.754;6.978;2022-11-21T10:48:25;1.85;;;0.90;;
39524;SDS011;25203;50.754;6.978;2022-11-21T10:52:43;2.40;;;0.95;;
39524;SDS011;25203;50.754;6.978;2022-11-21T10:57:14;3.60;;;1.10;;
39524;SDS011;25203;50.754;6.978;2022-11-21T10:59:27;3.45;;;1.10;;
39524;SDS011;25203;50.754;6.978;2022-11-21T11:01:30;2.67;;;1.30;;
39524;SDS011;25203;50.754;6.978;2022-11-21T11:03:32;3.17;;;1.42;;
39524;SDS011;25203;50.754;6.978;2022-11-21T11:05:34;2.60;;;0.90;;
39524;SDS011;25203;50.754;6.978;2022-11-21T11:07:37;3.42;;;1.10;;
39524;SDS011;25203;50.754;6.978;2022-11-21T11:09:38;0.80;;;0.80;;
39524;SDS011;25203;50.754;6.978;2022-11-21T11:11:39;3.78;;;1.00;;
39524;SDS011;25203;50.754;6.978;2022-11-21T11:16:13;7.57;;;1.67;;
39524;SDS011;25203;50.754;6.978;2022-11-21T11:18:18;3.50;;;1.50;;
39524;SDS011;25203;50.754;6.978;2022-11-21T11:20:37;3.42;;;0.90;;
39524;SDS011;25203;50.754;6.978;2022-11-21T11:22:42;3.70;;;1.00;;
39524;SDS011;25203;50.754;6.978;2022-11-21T11:24:43;3.05;;;1.00;;
39524;SDS011;25203;50.754;6.978;2022-11-21T11:26:59;4.18;;;1.17;;
39524;SDS011;25203;50.754;6.978;2022-11-21T11:29:15;5.40;;;1.20;;
39524;SDS011;25203;50.754;6.978;2022-11-21T11:31:17;2.63;;;1.02;;
39524;SDS011;25203;50.754;6.978;2022-11-21T11:35:37;3.13;;;1.00;;
39524;SDS011;25203;50.754;6.978;2022-11-21T11:37:42;2.35;;;1.00;;
39524;SDS011;25203;50.754;6.978;2022-11-21T11:40:21;3.72;;;1.00;;
39524;SDS011;25203;50.754;6.978;2022-11-21T11:47:32;2.15;;;1.08;;
39524;SDS011;25203;50.754;6.978;2022-11-21T11:49:45;3.60;;;1.17;;
39524;SDS011;25203;50.754;6.978;2022-11-21T11:52:12;3.15;;;0.90;;
39524;SDS011;25203;50.754;6.978;2022-11-21T11:54:16;4.65;;;1.38;;
39524;SDS011;25203;50.754;6.978;2022-11-21T11:56:26;5.35;;;0.90;;
39524;SDS011;25203;50.754;6.978;2022-11-21T11:58:34;2.45;;;1.20;;
39524;SDS011;25203;50.754;6.978;2022-11-21T12:00:41;2.20;;;0.90;;
39524;SDS011;25203;50.754;6.978;2022-11-21T12:04:57;2.78;;;0.95;;
39524;SDS011;25203;50.754;6.978;2022-11-21T12:07:16;7.35;;;1.33;;
39524;SDS011;25203;50.754;6.978;2022-11-21T12:09:35;3.50;;;1.15;;
39524;SDS011;25203;50.754;6.978;2022-11-21T12:17:14;2.95;;;1.05;;
39524;SDS011;25203;50.754;6.978;2022-11-21T12:19:18;2.25;;;1.30;;
39524;SDS011;25203;50.754;6.978;2022-11-21T12:21:19;6.47;;;1.63;;
39524;SDS011;25203;50.754;6.978;2022-11-21T12:23:24;4.13;;;1.10;;
39524;SDS011;25203;50.754;6.978;2022-11-21T12:25:30;4.30;;;0.80;;
39524;SDS011;25203;50.754;6.978;2022-11-21T12:27:35;5.88;;;1.50;;
39524;SDS011;25203;50.754;6.978;2022-11-21T12:41:46;4.25;;;1.08;;
39524;SDS011;25203;50.754;6.978;2022-11-21T12:51:39;3.83;;;1.13;;
39524;SDS011;25203;50.754;6.978;2022-11-21T12:57:15;5.50;;;1.35;;
39524;SDS011;25203;50.754;6.978;2022-11-21T12:59:20;2.40;;;1.02;;
39524;SDS011;25203;50.754;6.978;2022-11-21T13:01:35;2.95;;;0.90;;
39524;SDS011;25203;50.754;6.978;2022-11-21T13:04:07;3.78;;;1.10;;
39524;SDS011;25203;50.754;6.978;2022-11-21T13:06:14;5.07;;;1.30;;
39524;SDS011;25203;50.754;6.978;2022-11-21T13:08:22;4.68;;;1.00;;
39524;SDS011;25203;50.754;6.978;2022-11-21T13:10:25;4.80;;;1.60;;
39524;SDS011;25203;50.754;6.978;2022-11-21T13:14:38;6.63;;;1.63;;
39524;SDS011;25203;50.754;6.978;2022-11-21T13:19:15;6.47;;;1.27;;
39524;SDS011;25203;50.754;6.978;2022-11-21T13:21:48;5.10;;;1.77;;
39524;SDS011;25203;50.754;6.978;2022-11-21T13:25:50;4.05;;;1.33;;
39524;SDS011;25203;50.754;6.978;2022-11-21T13:27:51;5.15;;;1.45;;
39524;SDS011;25203;50.754;6.978;2022-11-21T13:34:41;5.40;;;1.33;;
39524;SDS011;25203;50.754;6.978;2022-11-21T13:36:41;3.38;;;1.08;;
39524;SDS011;25203;50.754;6.978;2022-11-21T13:40:54;3.75;;;1.20;;